Time;durP1;ratioP1;P1;durP2;ratioP2;P2;SDS_P1;SDS_P2;PMS_P1;PMS_P2;Temp;Humidity;BMP_temperature;BMP_pressure;BME280_temperature;BME280_humidity;BME280_pressure;Samples;Min_cycle;Max_cycle;Signal;HPM_P1;HPM_P2
2022/02/28 00:01:02;;;;;;;7.50;3.90;;;7.10;57.40;;;;;;5074234;28;20465;-69
2022/02/28 00:03:28;;;;;;;10.13;4.50;;;7.20;58.20;;;;;;5074394;28;20523;-69
2022/02/28 00:05:55;;;;;;;9.50;5.73;;;7.20;58.60;;;;;;5074385;28;20482;-69
2022/02/28 00:08:22;;;;;;;8.43;5.40;;;7.30;59.20;;;;;;5074888;28;20976;-69
2022/02/28 00:10:49;;;;;;;7.67;4.67;;;7.30;59.30;;;;;;5073954;28;20464;-69
2022/02/28 00:13:16;;;;;;;6.00;4.70;;;7.40;59.30;;;;;;5073914;28;20437;-69
2022/02/28 00:15:44;;;;;;;8.67;4.73;;;7.40;59.30;;;;;;5073813;28;20479;-69
2022/02/28 00:18:10;;;;;;;5.70;4.63;;;7.50;59.60;;;;;;5073981;28;20436;-69
2022/02/28 00:20:38;;;;;;;6.73;4.30;;;7.50;59.50;;;;;;5073797;28;20472;-69
2022/02/28 00:23:04;;;;;;;7.37;4.30;;;7.50;59.50;;;;;;5073678;28;20444;-69
2022/02/28 00:25:31;;;;;;;8.80;5.43;;;7.50;59.90;;;;;;5074207;28;20449;-69
2022/02/28 00:28:00;;;;;;;6.40;4.50;;;7.50;60.60;;;;;;5073663;28;20822;-69
2022/02/28 00:30:27;;;;;;;7.20;4.93;;;7.50;59.80;;;;;;5073665;28;20479;-69
2022/02/28 00:32:55;;;;;;;7.90;5.20;;;7.50;59.70;;;;;;5073094;28;20444;-69
2022/02/28 00:35:22;;;;;;;9.40;5.53;;;7.40;59.70;;;;;;5073436;28;20459;-69
2022/02/28 00:37:48;;;;;;;5.20;4.20;;;7.40;59.80;;;;;;5073561;28;20437;-69
2022/02/28 00:40:15;;;;;;;8.00;4.67;;;7.40;60.20;;;;;;5073492;28;20465;-69
2022/02/28 00:42:42;;;;;;;7.60;5.20;;;7.30;60.50;;;;;;5073420;28;20535;-69
2022/02/28 00:45:09;;;;;;;7.20;4.70;;;7.30;60.60;;;;;;5073383;28;20440;-69
2022/02/28 00:47:36;;;;;;;6.97;5.67;;;7.30;60.50;;;;;;5073475;28;20448;-69
2022/02/28 00:50:07;;;;;;;9.00;5.80;;;7.30;60.90;;;;;;5073079;28;20468;-69
2022/02/28 00:52:33;;;;;;;5.90;5.07;;;7.20;59.80;;;;;;5073360;28;20432;-69
2022/02/28 00:55:00;;;;;;;8.53;6.03;;;7.20;60.50;;;;;;5073162;28;20457;-69
2022/02/28 00:57:27;;;;;;;6.33;5.20;;;7.20;61.10;;;;;;5073196;28;20484;-69
2022/02/28 00:59:54;;;;;;;9.50;6.20;;;7.10;60.70;;;;;;5073303;28;20473;-69
2022/02/28 01:02:21;;;;;;;7.07;5.70;;;7.10;60.80;;;;;;5073362;28;20445;-69
2022/02/28 01:04:48;;;;;;;8.27;5.50;;;7.10;61.10;;;;;;5073130;28;20812;-69
2022/02/28 01:07:16;;;;;;;7.80;5.20;;;7.10;61.30;;;;;;5073077;28;20460;-69
2022/02/28 01:09:43;;;;;;;4.97;4.47;;;7.00;61.50;;;;;;5073162;28;20472;-68
2022/02/28 01:12:10;;;;;;;5.97;5.20;;;7.00;61.90;;;;;;5073106;28;20523;-69
2022/02/28 01:14:38;;;;;;;5.20;4.50;;;7.00;62.30;;;;;;5073073;28;20456;-69
2022/02/28 01:17:05;;;;;;;6.23;4.70;;;7.00;62.30;;;;;;5073068;28;20551;-69
2022/02/28 01:19:32;;;;;;;7.10;4.43;;;6.90;62.30;;;;;;5073087;28;20448;-68
2022/02/28 01:21:59;;;;;;;5.77;4.13;;;6.90;62.50;;;;;;5073124;28;20445;-69
2022/02/28 01:24:27;;;;;;;8.63;5.60;;;6.90;62.70;;;;;;5073065;28;20850;-69
2022/02/28 01:26:54;;;;;;;6.13;5.40;;;6.90;62.80;;;;;;5072806;28;21034;-69
2022/02/28 01:29:21;;;;;;;6.63;5.43;;;6.80;62.80;;;;;;5072919;28;20444;-68
2022/02/28 01:31:47;;;;;;;5.60;4.43;;;6.80;63.10;;;;;;5073029;28;20456;-69
2022/02/28 01:34:14;;;;;;;5.87;4.30;;;6.80;63.10;;;;;;5073070;28;20425;-69
2022/02/28 01:36:41;;;;;;;6.00;4.60;;;6.80;63.50;;;;;;5072552;28;21002;-69
2022/02/28 01:39:08;;;;;;;9.97;5.43;;;6.80;63.70;;;;;;5072908;28;20456;-69
2022/02/28 01:41:36;;;;;;;9.60;6.13;;;6.70;63.40;;;;;;5072438;28;20476;-69
2022/02/28 01:44:05;;;;;;;8.67;6.03;;;6.70;63.60;;;;;;5074185;28;20444;-69
2022/02/28 01:46:32;;;;;;;5.23;4.53;;;6.70;64.10;;;;;;5076669;28;20441;-69
2022/02/28 01:48:59;;;;;;;8.30;4.67;;;6.70;64.30;;;;;;5076814;28;20818;-69
2022/02/28 01:51:26;;;;;;;8.40;5.27;;;6.70;64.40;;;;;;5076463;28;20469;-69
2022/02/28 01:53:53;;;;;;;6.80;5.40;;;6.70;64.50;;;;;;5076339;28;20442;-69
2022/02/28 01:56:21;;;;;;;6.90;5.63;;;6.70;64.40;;;;;;5076191;28;20475;-69
2022/02/28 01:58:49;;;;;;;8.27;5.30;;;6.60;64.30;;;;;;5076232;28;20448;-69
2022/02/28 02:01:16;;;;;;;13.33;5.23;;;6.60;64.40;;;;;;5076275;28;20475;-69
2022/02/28 02:03:42;;;;;;;6.43;5.17;;;6.60;64.30;;;;;;5076363;28;20456;-69
2022/02/28 02:06:09;;;;;;;10.80;6.00;;;6.60;64.80;;;;;;5076214;28;20441;-69
2022/02/28 02:08:36;;;;;;;6.07;5.00;;;6.60;65.10;;;;;;5075949;28;20939;-69
2022/02/28 02:11:04;;;;;;;9.10;5.93;;;6.50;65.10;;;;;;5076194;28;20467;-69
2022/02/28 02:13:31;;;;;;;7.77;5.30;;;6.60;65.20;;;;;;5076250;28;20460;-69
2022/02/28 02:16:01;;;;;;;8.30;5.23;;;6.50;65.50;;;;;;5076132;28;20536;-69
2022/02/28 02:18:28;;;;;;;8.00;5.80;;;6.50;65.40;;;;;;5076113;28;20453;-69
2022/02/28 02:20:56;;;;;;;8.77;5.30;;;6.50;65.50;;;;;;5076158;28;20468;-69
2022/02/28 02:23:24;;;;;;;7.63;5.57;;;6.40;66.50;;;;;;5076009;28;20795;-69
2022/02/28 02:25:51;;;;;;;8.93;5.73;;;6.40;65.80;;;;;;5076716;28;20457;-69
2022/02/28 02:28:20;;;;;;;9.80;7.00;;;6.40;66.00;;;;;;5075738;28;20814;-69
2022/02/28 02:30:49;;;;;;;7.37;5.63;;;6.30;66.30;;;;;;5075979;28;20464;-69
2022/02/28 02:33:16;;;;;;;8.40;6.40;;;6.30;66.30;;;;;;5075997;28;20480;-69
2022/02/28 02:35:47;;;;;;;6.43;5.27;;;6.30;65.90;;;;;;5075871;28;20801;-69
2022/02/28 02:38:15;;;;;;;6.53;5.23;;;6.30;66.00;;;;;;5075999;28;20425;-69
2022/02/28 02:40:42;;;;;;;9.87;5.17;;;6.30;66.20;;;;;;5075858;28;20476;-68
2022/02/28 02:43:09;;;;;;;5.80;5.10;;;6.30;66.40;;;;;;5075698;28;20444;-69
2022/02/28 02:45:36;;;;;;;8.60;4.70;;;6.30;66.70;;;;;;5075612;28;20493;-69
2022/02/28 02:48:13;;;;;;;9.27;5.73;;;6.20;66.80;;;;;;5075578;28;20928;-69
2022/02/28 02:50:40;;;;;;;7.50;5.30;;;6.20;66.70;;;;;;5075670;28;20470;-69
2022/02/28 02:53:07;;;;;;;11.23;5.80;;;6.20;66.70;;;;;;5076109;28;20440;-69
2022/02/28 02:55:35;;;;;;;9.13;5.60;;;6.20;66.50;;;;;;5075245;28;20490;-69
2022/02/28 02:58:03;;;;;;;9.17;5.27;;;6.20;66.50;;;;;;5075674;28;20472;-69
2022/02/28 03:00:30;;;;;;;6.33;5.17;;;6.10;66.20;;;;;;5075824;28;20465;-69
2022/02/28 03:02:57;;;;;;;6.20;5.00;;;6.10;66.30;;;;;;5076565;28;20457;-69
2022/02/28 03:05:23;;;;;;;5.23;4.53;;;6.10;66.50;;;;;;5076615;28;20798;-69
2022/02/28 03:07:50;;;;;;;8.27;5.17;;;6.10;66.70;;;;;;5077011;28;20453;-69
2022/02/28 03:10:17;;;;;;;6.60;5.63;;;6.10;66.90;;;;;;5078508;28;20482;-69
2022/02/28 03:12:46;;;;;;;7.73;4.97;;;6.10;67.10;;;;;;5077817;28;21018;-69
2022/02/28 03:15:12;;;;;;;11.43;5.27;;;6.10;67.40;;;;;;5077536;28;20819;-69
2022/02/28 03:17:39;;;;;;;8.00;5.53;;;6.10;67.60;;;;;;5075910;28;20845;-69
2022/02/28 03:20:07;;;;;;;5.90;4.77;;;6.00;67.30;;;;;;5076052;28;20540;-68
2022/02/28 03:22:34;;;;;;;6.70;5.30;;;6.00;68.10;;;;;;5075621;28;20445;-68
2022/02/28 03:25:01;;;;;;;8.50;5.70;;;6.00;67.50;;;;;;5075509;28;20449;-69
2022/02/28 03:27:27;;;;;;;8.63;5.67;;;5.90;67.60;;;;;;5075328;28;20461;-69
2022/02/28 03:29:55;;;;;;;6.47;4.90;;;5.90;67.70;;;;;;5075197;28;20469;-68
2022/02/28 03:32:22;;;;;;;6.93;5.00;;;5.80;67.80;;;;;;5075639;28;20453;-68
2022/02/28 03:34:49;;;;;;;8.47;5.50;;;5.80;67.70;;;;;;5074508;28;20483;-68
2022/02/28 03:37:16;;;;;;;6.17;5.57;;;5.80;67.90;;;;;;5074593;28;20484;-68
2022/02/28 03:39:43;;;;;;;6.80;5.13;;;5.80;67.90;;;;;;5074569;28;20838;-68
2022/02/28 03:42:10;;;;;;;8.73;5.67;;;5.70;68.20;;;;;;5074727;28;20455;-69
2022/02/28 03:44:37;;;;;;;6.13;5.17;;;5.70;68.40;;;;;;5074838;28;20935;-69
2022/02/28 03:47:06;;;;;;;9.77;5.77;;;5.60;68.60;;;;;;5074867;28;20448;-69
2022/02/28 03:49:32;;;;;;;7.50;5.40;;;5.60;68.90;;;;;;5074294;28;20453;-68
2022/02/28 03:51:59;;;;;;;7.07;4.90;;;5.60;69.20;;;;;;5074480;28;20449;-68
2022/02/28 03:54:26;;;;;;;7.83;5.00;;;5.60;69.60;;;;;;5074383;28;20448;-69
2022/02/28 03:56:53;;;;;;;10.30;5.50;;;5.50;69.70;;;;;;5074251;28;20480;-69
2022/02/28 03:59:19;;;;;;;6.63;5.37;;;5.50;69.90;;;;;;5074296;28;20445;-69
2022/02/28 04:01:46;;;;;;;8.03;5.37;;;5.50;70.20;;;;;;5074169;28;20799;-69
2022/02/28 04:04:14;;;;;;;8.07;5.83;;;5.40;70.30;;;;;;5074042;28;20453;-69
2022/02/28 04:06:45;;;;;;;9.20;5.70;;;5.40;70.60;;;;;;5073115;28;20449;-68
2022/02/28 04:09:13;;;;;;;6.80;5.07;;;5.40;70.90;;;;;;5075000;28;20433;-68
2022/02/28 04:11:40;;;;;;;8.77;5.50;;;5.40;71.10;;;;;;5073906;28;20840;-69
2022/02/28 04:14:07;;;;;;;9.20;5.90;;;5.40;71.40;;;;;;5073924;28;20448;-69
2022/02/28 04:16:34;;;;;;;6.60;5.30;;;5.30;71.50;;;;;;5073844;28;20449;-69
2022/02/28 04:19:01;;;;;;;8.47;5.60;;;5.40;72.00;;;;;;5074030;28;20440;-69
2022/02/28 04:21:29;;;;;;;6.67;5.13;;;5.30;72.00;;;;;;5073846;28;20468;-69
2022/02/28 04:23:56;;;;;;;7.60;5.23;;;5.30;72.10;;;;;;5073751;28;20451;-69
2022/02/28 04:26:22;;;;;;;11.93;6.23;;;5.30;72.10;;;;;;5073481;28;20460;-69
2022/02/28 04:28:49;;;;;;;7.50;5.03;;;5.30;72.40;;;;;;5073803;28;20448;-69
2022/02/28 04:31:16;;;;;;;10.13;5.70;;;5.30;72.40;;;;;;5073696;28;20464;-68
2022/02/28 04:33:43;;;;;;;6.07;5.37;;;5.30;72.40;;;;;;5073525;28;20458;-68
2022/02/28 04:36:10;;;;;;;8.47;5.33;;;5.30;72.40;;;;;;5073393;28;20441;-69
2022/02/28 04:38:38;;;;;;;7.10;5.80;;;5.20;72.40;;;;;;5073487;28;20484;-69
2022/02/28 04:41:04;;;;;;;6.07;5.10;;;5.20;72.60;;;;;;5073528;28;20510;-69
2022/02/28 04:43:31;;;;;;;9.67;5.53;;;5.20;72.80;;;;;;5073718;28;20527;-69
2022/02/28 04:45:58;;;;;;;6.70;5.33;;;5.10;72.80;;;;;;5073566;28;20444;-69
2022/02/28 04:48:24;;;;;;;11.07;5.53;;;5.10;73.00;;;;;;5073162;28;20468;-69
2022/02/28 04:50:55;;;;;;;7.70;5.83;;;5.10;73.30;;;;;;5073305;28;20468;-68
2022/02/28 04:53:22;;;;;;;7.73;5.80;;;5.10;73.40;;;;;;5073171;28;20433;-69
2022/02/28 04:55:50;;;;;;;6.63;5.90;;;5.10;73.50;;;;;;5073361;28;20448;-69
2022/02/28 04:58:17;;;;;;;6.70;5.47;;;5.00;74.10;;;;;;5073311;28;20476;-69
2022/02/28 05:00:43;;;;;;;10.73;6.00;;;5.10;74.40;;;;;;5073307;28;20468;-69
2022/02/28 05:03:10;;;;;;;6.50;4.80;;;5.00;74.40;;;;;;5073277;28;20444;-69
2022/02/28 05:05:37;;;;;;;9.80;5.60;;;5.00;74.30;;;;;;5073190;28;20456;-69
2022/02/28 05:08:04;;;;;;;6.90;5.67;;;5.00;74.30;;;;;;5072890;28;20463;-69
2022/02/28 05:10:31;;;;;;;7.37;6.30;;;5.00;74.50;;;;;;5073954;28;20469;-68
2022/02/28 05:12:59;;;;;;;6.90;5.57;;;5.00;74.70;;;;;;5073188;28;20445;-68
2022/02/28 05:15:26;;;;;;;7.57;5.70;;;5.00;75.80;;;;;;5073134;28;20460;-69
2022/02/28 05:17:53;;;;;;;7.40;5.70;;;5.00;75.00;;;;;;5074109;28;20468;-68
2022/02/28 05:20:19;;;;;;;8.90;7.10;;;5.00;75.00;;;;;;5077296;28;20491;-68
2022/02/28 05:22:46;;;;;;;7.00;6.23;;;4.90;75.00;;;;;;5076825;28;20459;-69
2022/02/28 05:25:14;;;;;;;5.83;5.23;;;4.90;75.40;;;;;;5077314;28;20453;-69
2022/02/28 05:27:43;;;;;;;7.17;5.97;;;4.90;75.40;;;;;;5076927;28;20437;-69
2022/02/28 05:30:13;;;;;;;8.13;6.10;;;4.90;75.50;;;;;;5076682;28;20469;-68
2022/02/28 05:32:41;;;;;;;8.83;6.70;;;4.90;75.70;;;;;;5077035;28;20443;-69
2022/02/28 05:35:09;;;;;;;11.53;6.60;;;4.80;75.80;;;;;;5076971;28;20452;-69
2022/02/28 05:37:36;;;;;;;8.47;6.10;;;4.90;76.00;;;;;;5076665;28;20839;-69
2022/02/28 05:40:04;;;;;;;11.57;6.30;;;4.80;76.00;;;;;;5077067;28;20468;-69
2022/02/28 05:42:31;;;;;;;7.27;6.03;;;4.80;76.40;;;;;;5077029;28;20445;-69
2022/02/28 05:44:58;;;;;;;10.37;6.80;;;4.80;76.40;;;;;;5076927;28;20441;-69
2022/02/28 05:47:26;;;;;;;10.03;7.03;;;4.80;76.40;;;;;;5076753;28;20452;-68
2022/02/28 05:49:52;;;;;;;10.67;7.30;;;4.80;76.50;;;;;;5076641;28;20460;-69
2022/02/28 05:52:19;;;;;;;8.10;6.80;;;4.80;76.40;;;;;;5076833;28;20520;-69
2022/02/28 05:54:46;;;;;;;7.80;6.40;;;4.80;76.40;;;;;;5076870;28;20461;-69
2022/02/28 05:57:13;;;;;;;9.63;6.30;;;4.80;76.40;;;;;;5076567;28;20472;-69
2022/02/28 05:59:40;;;;;;;9.73;5.93;;;4.80;76.60;;;;;;5076577;28;20787;-68
2022/02/28 06:02:07;;;;;;;11.20;6.53;;;4.80;76.80;;;;;;5076322;28;20448;-69
2022/02/28 06:04:35;;;;;;;8.07;6.20;;;4.80;76.70;;;;;;5076648;28;20448;-69
2022/02/28 06:07:01;;;;;;;8.17;5.77;;;4.70;76.50;;;;;;5076238;28;20467;-69
2022/02/28 06:09:28;;;;;;;8.87;6.20;;;4.80;76.80;;;;;;5076259;28;20449;-68
2022/02/28 06:11:55;;;;;;;8.23;5.90;;;4.80;77.70;;;;;;5076285;28;20451;-68
2022/02/28 06:14:21;;;;;;;10.17;7.10;;;4.70;76.90;;;;;;5075996;28;20451;-68
2022/02/28 06:16:48;;;;;;;10.70;7.43;;;4.70;77.00;;;;;;5076047;28;20444;-68
2022/02/28 06:19:15;;;;;;;8.03;6.80;;;4.70;77.10;;;;;;5076188;28;20467;-68
2022/02/28 06:21:43;;;;;;;7.67;6.87;;;4.70;77.20;;;;;;5076119;28;20465;-68
2022/02/28 06:24:10;;;;;;;9.30;6.70;;;4.60;77.40;;;;;;5076080;28;20445;-68
2022/02/28 06:26:37;;;;;;;9.73;5.97;;;4.70;77.60;;;;;;5075877;28;20971;-68
2022/02/28 06:29:04;;;;;;;7.37;6.60;;;4.70;77.60;;;;;;5075645;28;20527;-69
2022/02/28 06:31:30;;;;;;;10.30;7.30;;;4.60;77.60;;;;;;5075765;28;20475;-68
2022/02/28 06:33:57;;;;;;;10.53;7.23;;;4.60;77.80;;;;;;5076331;28;20441;-69
2022/02/28 06:36:24;;;;;;;8.97;7.13;;;4.60;78.00;;;;;;5075984;28;20455;-69
2022/02/28 06:38:52;;;;;;;8.40;6.83;;;4.70;78.20;;;;;;5076415;28;20481;-69
2022/02/28 06:41:19;;;;;;;14.27;7.47;;;4.60;78.30;;;;;;5077711;28;20471;-69
2022/02/28 06:43:46;;;;;;;9.37;7.07;;;4.60;78.40;;;;;;5079136;28;20425;-68
2022/02/28 06:46:12;;;;;;;8.90;6.83;;;4.60;78.30;;;;;;5079661;28;20788;-68
2022/02/28 06:48:39;;;;;;;8.57;6.80;;;4.70;78.40;;;;;;5086486;28;20480;-68
2022/02/28 06:51:06;;;;;;;8.60;7.07;;;4.70;78.50;;;;;;5084739;28;20452;-68
2022/02/28 06:53:33;;;;;;;9.10;6.43;;;4.70;78.70;;;;;;5080378;28;20448;-68
2022/02/28 06:56:01;;;;;;;7.43;6.40;;;4.70;78.50;;;;;;5078250;28;20475;-68
2022/02/28 06:58:28;;;;;;;12.30;8.10;;;4.70;78.70;;;;;;5077218;28;20495;-68
2022/02/28 07:00:55;;;;;;;11.97;7.83;;;4.70;78.90;;;;;;5076758;28;20468;-68
2022/02/28 07:03:23;;;;;;;12.47;7.43;;;4.70;79.00;;;;;;5076130;28;20444;-68
2022/02/28 07:05:52;;;;;;;10.17;7.70;;;4.70;79.30;;;;;;5075893;28;20452;-68
2022/02/28 07:08:19;;;;;;;12.53;7.00;;;4.70;79.40;;;;;;5075734;28;20464;-68
2022/02/28 07:10:47;;;;;;;10.53;7.47;;;4.70;79.30;;;;;;5075407;28;21002;-68
2022/02/28 07:13:16;;;;;;;10.20;8.97;;;4.70;79.40;;;;;;5075525;28;20455;-68
2022/02/28 07:15:44;;;;;;;11.30;7.90;;;4.80;79.40;;;;;;5075650;28;20432;-68
2022/02/28 07:18:11;;;;;;;10.87;7.53;;;4.80;79.80;;;;;;5075394;28;20469;-68
2022/02/28 07:20:38;;;;;;;10.53;7.77;;;4.80;80.00;;;;;;5075655;28;20472;-69
2022/02/28 07:23:05;;;;;;;9.80;8.20;;;4.80;80.10;;;;;;5075143;28;20594;-68
2022/02/28 07:25:34;;;;;;;8.67;6.13;;;4.80;80.30;;;;;;5075241;28;20452;-68
2022/02/28 07:28:00;;;;;;;9.23;7.13;;;4.80;80.40;;;;;;5074901;28;20432;-68
2022/02/28 07:30:29;;;;;;;10.70;7.20;;;4.80;80.50;;;;;;5075119;28;20472;-68
2022/02/28 07:32:56;;;;;;;8.90;6.97;;;4.80;81.00;;;;;;5074979;28;20460;-69
2022/02/28 07:35:23;;;;;;;10.23;6.60;;;4.90;81.10;;;;;;5074770;28;20452;-69
2022/02/28 07:37:50;;;;;;;10.30;6.70;;;4.90;81.20;;;;;;5074425;28;20476;-68
2022/02/28 07:40:17;;;;;;;8.90;6.80;;;5.00;81.20;;;;;;5074450;28;20464;-69
2022/02/28 07:42:44;;;;;;;10.33;7.37;;;5.00;81.10;;;;;;5074513;28;20955;-68
2022/02/28 07:45:11;;;;;;;10.20;7.90;;;5.10;81.10;;;;;;5074800;28;20448;-68
2022/02/28 07:47:39;;;;;;;9.70;7.33;;;5.10;80.90;;;;;;5074616;28;20900;-69
2022/02/28 07:50:07;;;;;;;11.23;7.60;;;5.20;80.80;;;;;;5074697;28;20498;-68
2022/02/28 07:52:34;;;;;;;9.03;7.53;;;5.20;80.80;;;;;;5074686;28;20449;-68
2022/02/28 07:55:01;;;;;;;8.73;7.33;;;5.30;80.90;;;;;;5074873;28;20444;-68
2022/02/28 07:57:28;;;;;;;9.83;8.23;;;5.30;80.40;;;;;;5074719;28;20433;-68
2022/02/28 07:59:56;;;;;;;13.90;7.73;;;5.40;80.20;;;;;;5073951;28;20464;-68
2022/02/28 08:02:23;;;;;;;13.20;8.60;;;5.40;79.70;;;;;;5074609;28;20455;-69
2022/02/28 08:04:52;;;;;;;9.83;7.20;;;5.50;79.40;;;;;;5074806;28;20451;-68
2022/02/28 08:07:19;;;;;;;11.93;7.50;;;5.50;78.70;;;;;;5074467;28;20468;-69
2022/02/28 08:09:45;;;;;;;10.30;7.93;;;5.60;78.40;;;;;;5074486;28;20447;-68
2022/02/28 08:12:12;;;;;;;9.87;7.80;;;5.60;78.60;;;;;;5074412;28;20447;-68
2022/02/28 08:14:40;;;;;;;9.53;7.60;;;5.70;78.50;;;;;;5074356;28;20440;-68
2022/02/28 08:17:07;;;;;;;13.30;7.40;;;5.70;78.50;;;;;;5074140;28;20795;-68
2022/02/28 08:19:34;;;;;;;10.10;6.90;;;5.70;78.20;;;;;;5073661;28;20472;-68
2022/02/28 08:22:03;;;;;;;11.07;7.50;;;5.80;78.20;;;;;;5074160;28;20444;-68
2022/02/28 08:24:29;;;;;;;9.43;7.03;;;5.80;78.30;;;;;;5074086;28;20452;-68
2022/02/28 08:26:56;;;;;;;10.90;7.50;;;5.90;78.60;;;;;;5074081;28;20822;-68
2022/02/28 08:29:23;;;;;;;18.50;8.60;;;5.90;78.40;;;;;;5073642;28;20967;-68
2022/02/28 08:31:50;;;;;;;9.43;8.03;;;6.00;78.40;;;;;;5073835;28;20475;-68
2022/02/28 08:34:17;;;;;;;11.33;7.47;;;6.00;78.10;;;;;;5073902;28;20447;-68
2022/02/28 08:36:44;;;;;;;9.70;8.37;;;6.10;78.10;;;;;;5073754;28;20498;-68
2022/02/28 08:39:12;;;;;;;10.30;7.70;;;6.10;77.80;;;;;;5073765;28;20480;-68
2022/02/28 08:41:39;;;;;;;9.07;6.90;;;6.10;77.80;;;;;;5073671;28;20456;-68
2022/02/28 08:44:07;;;;;;;9.77;7.17;;;6.20;77.50;;;;;;5073728;28;20445;-68
2022/02/28 08:46:35;;;;;;;11.70;7.70;;;6.30;77.50;;;;;;5073637;28;20504;-68
2022/02/28 08:49:01;;;;;;;11.20;7.80;;;6.30;74.20;;;;;;5073646;28;20445;-68
2022/02/28 08:51:28;;;;;;;11.07;7.57;;;6.40;74.10;;;;;;5073685;28;20471;-68
2022/02/28 08:53:55;;;;;;;8.90;7.40;;;6.40;74.20;;;;;;5073267;28;20453;-68
2022/02/28 08:56:23;;;;;;;10.57;8.60;;;6.40;74.30;;;;;;5073479;28;20440;-68
2022/02/28 08:58:50;;;;;;;11.50;8.50;;;6.40;73.70;;;;;;5073335;28;20483;-68
2022/02/28 09:01:17;;;;;;;10.67;7.70;;;6.50;74.20;;;;;;5073288;28;20466;-68
2022/02/28 09:03:43;;;;;;;9.67;7.67;;;6.50;74.20;;;;;;5073337;28;20452;-68
2022/02/28 09:06:10;;;;;;;10.47;7.30;;;6.60;74.20;;;;;;5073100;28;20904;-68
2022/02/28 09:08:37;;;;;;;10.43;7.97;;;6.70;73.80;;;;;;5073030;28;20452;-68
2022/02/28 09:11:03;;;;;;;11.60;7.73;;;6.70;73.40;;;;;;5073226;28;20472;-68
2022/02/28 09:13:33;;;;;;;12.20;6.93;;;6.80;73.20;;;;;;5073261;28;20451;-68
2022/02/28 09:16:00;;;;;;;9.40;6.93;;;6.80;73.20;;;;;;5072959;28;20452;-69
2022/02/28 09:18:27;;;;;;;10.53;7.60;;;6.90;73.10;;;;;;5072861;28;20571;-68
2022/02/28 09:20:54;;;;;;;11.63;7.50;;;7.00;72.80;;;;;;5073204;28;20472;-68
2022/02/28 09:23:21;;;;;;;9.83;6.63;;;7.10;72.80;;;;;;5073360;28;20439;-68
2022/02/28 09:25:48;;;;;;;10.53;6.90;;;7.20;72.60;;;;;;5073245;28;20449;-68
2022/02/28 09:28:15;;;;;;;7.70;6.93;;;7.30;73.00;;;;;;5073197;28;20455;-68
2022/02/28 09:30:44;;;;;;;10.23;6.63;;;7.30;70.00;;;;;;5072966;28;20452;-68
2022/02/28 09:33:11;;;;;;;13.43;8.33;;;7.40;71.20;;;;;;5073155;28;20527;-68
2022/02/28 09:35:38;;;;;;;8.13;7.07;;;7.50;70.90;;;;;;5073229;28;20540;-68
2022/02/28 09:38:04;;;;;;;10.13;7.20;;;7.60;71.20;;;;;;5073026;28;20558;-68
2022/02/28 09:40:33;;;;;;;9.00;7.83;;;7.70;70.70;;;;;;5073128;28;20460;-69
2022/02/28 09:43:01;;;;;;;9.90;7.47;;;7.70;67.20;;;;;;5072735;28;20970;-68
2022/02/28 09:45:28;;;;;;;9.60;8.33;;;7.80;66.80;;;;;;5072964;28;20444;-69
2022/02/28 09:47:57;;;;;;;12.20;7.77;;;7.90;66.60;;;;;;5072994;28;20429;-69
2022/02/28 09:50:25;;;;;;;9.30;6.67;;;7.90;67.30;;;;;;5072559;28;20469;-68
2022/02/28 09:52:52;;;;;;;8.53;7.73;;;8.10;67.40;;;;;;5073439;28;20452;-68
2022/02/28 09:55:19;;;;;;;14.10;9.50;;;8.20;66.90;;;;;;5072580;28;20938;-68
2022/02/28 09:57:47;;;;;;;12.33;9.03;;;8.30;66.90;;;;;;5072849;28;20802;-68
2022/02/28 10:00:18;;;;;;;10.60;8.67;;;8.30;64.90;;;;;;5072404;28;20545;-68
2022/02/28 10:02:45;;;;;;;9.90;8.47;;;8.50;64.50;;;;;;5072666;28;20785;-68
2022/02/28 10:05:14;;;;;;;11.47;8.37;;;8.60;65.00;;;;;;5074449;28;20449;-68
2022/02/28 10:07:52;;;;;;;8.90;7.50;;;8.70;64.30;;;;;;5076493;28;20529;-69
2022/02/28 10:10:19;;;;;;;8.73;7.80;;;8.90;63.60;;;;;;5076929;28;20471;-68
2022/02/28 10:12:46;;;;;;;9.00;8.10;;;9.10;64.10;;;;;;5076728;28;20528;-69
2022/02/28 10:15:16;;;;;;;10.90;8.50;;;9.20;62.90;;;;;;5077398;28;20554;-69
2022/02/28 10:17:45;;;;;;;10.23;7.87;;;9.50;61.80;;;;;;5076886;28;20491;-69
2022/02/28 10:20:22;;;;;;;8.50;7.20;;;9.70;60.10;;;;;;5077156;28;20480;-68
2022/02/28 10:22:54;;;;;;;9.77;8.77;;;9.90;59.80;;;;;;5077789;28;20437;-69
2022/02/28 10:25:30;;;;;;;9.20;8.30;;;10.20;58.40;;;;;;5077950;28;20451;-69
2022/02/28 10:28:11;;;;;;;10.67;8.93;;;10.50;57.50;;;;;;5077313;28;20459;-69
2022/02/28 10:30:38;;;;;;;12.73;8.57;;;10.90;56.90;;;;;;5076779;28;20464;-69
2022/02/28 10:33:09;;;;;;;8.97;8.07;;;11.40;55.90;;;;;;5076530;28;20461;-69
2022/02/28 10:36:01;;;;;;;8.37;7.40;;;11.90;54.40;;;;;;5076277;28;20441;-69
2022/02/28 10:38:27;;;;;;;9.53;8.37;;;12.50;53.20;;;;;;5075883;28;20918;-69
2022/02/28 10:40:54;;;;;;;10.73;8.80;;;13.10;51.20;;;;;;5076098;28;20464;-69
2022/02/28 10:43:29;;;;;;;11.30;8.57;;;13.70;48.30;;;;;;5075944;28;20444;-69
2022/02/28 10:45:57;;;;;;;9.13;8.23;;;14.10;46.00;;;;;;5075897;28;20428;-69
2022/02/28 10:48:25;;;;;;;10.03;8.27;;;14.50;45.80;;;;;;5075621;28;20452;-69
2022/02/28 10:50:53;;;;;;;9.00;7.73;;;15.00;44.90;;;;;;5075785;28;20862;-69
2022/02/28 10:53:22;;;;;;;9.53;8.33;;;15.50;43.60;;;;;;5075738;28;20496;-69
2022/02/28 10:55:51;;;;;;;8.60;7.80;;;16.00;41.50;;;;;;5075352;28;20444;-69
2022/02/28 10:58:24;;;;;;;10.83;8.33;;;16.50;40.70;;;;;;5075706;28;20459;-69
2022/02/28 11:00:52;;;;;;;9.40;7.93;;;17.00;39.40;;;;;;5075454;28;20495;-69
2022/02/28 11:03:19;;;;;;;10.43;7.60;;;17.20;37.00;;;;;;5075539;28;20459;-69
2022/02/28 11:05:55;;;;;;;8.63;6.80;;;17.60;37.10;;;;;;5075489;28;20455;-70
2022/02/28 11:08:24;;;;;;;9.03;8.13;;;18.10;35.50;;;;;;5075131;28;20448;-69
2022/02/28 11:10:53;;;;;;;8.67;7.80;;;18.50;35.30;;;;;;5075282;28;20465;-69
2022/02/28 11:13:21;;;;;;;8.90;8.07;;;18.70;32.10;;;;;;5075144;28;20455;-69
2022/02/28 11:15:49;;;;;;;9.07;8.17;;;18.70;30.90;;;;;;5075493;28;20444;-70
2022/02/28 11:18:20;;;;;;;8.37;7.47;;;18.50;31.90;;;;;;5075333;28;20440;-69
2022/02/28 11:20:48;;;;;;;9.00;8.13;;;18.70;33.20;;;;;;5075116;28;20484;-69
2022/02/28 11:23:19;;;;;;;8.30;7.50;;;19.10;32.30;;;;;;5074912;28;21003;-70
2022/02/28 11:25:47;;;;;;;8.63;7.70;;;19.60;32.10;;;;;;5075133;28;20439;-70
2022/02/28 11:28:14;;;;;;;8.40;7.50;;;20.00;30.60;;;;;;5075009;28;20948;-70
2022/02/28 11:30:41;;;;;;;10.93;8.27;;;20.20;29.80;;;;;;5074733;28;20816;-70
2022/02/28 11:33:11;;;;;;;9.43;7.17;;;20.50;29.00;;;;;;5074979;28;20425;-69
2022/02/28 11:35:44;;;;;;;8.73;7.77;;;20.70;29.20;;;;;;5075816;28;20502;-70
2022/02/28 11:38:43;;;;;;;8.00;7.20;;;21.10;29.10;;;;;;5074839;28;20449;-69
2022/02/28 11:41:10;;;;;;;9.43;7.30;;;21.70;29.10;;;;;;5074815;28;20827;-69
2022/02/28 11:43:38;;;;;;;7.90;7.13;;;22.20;28.60;;;;;;5074809;28;20462;-69
2022/02/28 11:46:14;;;;;;;11.60;7.17;;;22.70;28.00;;;;;;5074604;28;20776;-70
2022/02/28 11:48:45;;;;;;;9.57;7.80;;;23.20;27.50;;;;;;5074447;28;20440;-70
2022/02/28 11:51:23;;;;;;;8.00;7.20;;;23.70;27.10;;;;;;5074552;28;20491;-70
2022/02/28 11:53:52;;;;;;;11.90;7.50;;;24.10;26.20;;;;;;5074331;28;20899;-70
2022/02/28 11:56:44;;;;;;;11.90;8.70;;;24.50;25.60;;;;;;5074581;28;20440;-70
2022/02/28 11:59:17;;;;;;;17.47;8.90;;;24.90;24.20;;;;;;5074598;28;20472;-70
2022/02/28 12:01:50;;;;;;;13.30;7.70;;;25.10;24.20;;;;;;5074079;28;20994;-70
2022/02/28 12:04:19;;;;;;;12.40;7.63;;;25.50;23.80;;;;;;5074530;28;20443;-70
2022/02/28 12:06:51;;;;;;;10.80;6.97;;;25.80;23.30;;;;;;5074236;28;20463;-70
2022/02/28 12:09:42;;;;;;;8.87;8.07;;;26.10;23.30;;;;;;5074011;28;20866;-70
2022/02/28 12:12:18;;;;;;;8.77;8.00;;;26.40;22.80;;;;;;5074221;28;20440;-70
2022/02/28 12:15:13;;;;;;;7.70;6.70;;;26.70;22.20;;;;;;5074239;28;20429;-70
2022/02/28 12:18:09;;;;;;;7.97;7.17;;;26.90;21.80;;;;;;5074189;28;20436;-70
2022/02/28 12:20:40;;;;;;;8.53;7.80;;;27.20;21.70;;;;;;5074055;28;20484;-70
2022/02/28 12:23:19;;;;;;;10.10;7.63;;;27.30;21.80;;;;;;5073874;28;20432;-70
2022/02/28 12:25:58;;;;;;;9.80;7.60;;;27.30;20.70;;;;;;5074068;28;20936;-70
2022/02/28 12:28:27;;;;;;;7.47;6.77;;;27.40;21.40;;;;;;5073019;28;20447;-70
2022/02/28 12:30:58;;;;;;;7.47;6.77;;;27.60;21.20;;;;;;5073531;28;20465;-70
2022/02/28 12:33:27;;;;;;;9.80;7.33;;;27.90;20.90;;;;;;5073797;28;20436;-70
2022/02/28 12:35:58;;;;;;;7.60;6.93;;;28.20;20.60;;;;;;5073922;28;20440;-70
2022/02/28 12:38:28;;;;;;;8.40;7.60;;;28.50;20.60;;;;;;5073915;28;20433;-70
2022/02/28 12:40:58;;;;;;;8.27;7.47;;;28.80;20.00;;;;;;5073438;28;20476;-70
2022/02/28 12:43:27;;;;;;;9.87;8.87;;;29.00;19.70;;;;;;5073756;28;20440;-70
2022/02/28 12:45:56;;;;;;;7.70;7.00;;;29.20;19.90;;;;;;5073843;28;20454;-69
2022/02/28 12:48:24;;;;;;;9.40;8.40;;;29.40;20.00;;;;;;5073434;28;20899;-69
2022/02/28 12:50:54;;;;;;;8.70;7.90;;;29.50;18.20;;;;;;5073499;28;20839;-70
2022/02/28 12:53:21;;;;;;;7.43;6.83;;;29.30;19.10;;;;;;5073243;28;20448;-69
2022/02/28 12:55:53;;;;;;;8.70;8.00;;;29.40;19.20;;;;;;5073335;28;20440;-70
2022/02/28 12:58:24;;;;;;;8.13;7.43;;;29.70;19.30;;;;;;5073498;28;20536;-70